Fisherville, Tennessee
Current Conditions -  °F | °C
As of 10:35 PM on Sunday 25 Jan 2015 (Local Time) from KOLV Reporting Station
Overcast Overcast  
Wind Chill: 33°   Ceiling: 1900
Heat Index: 41°   Visibility: 8mi
Dew Point: 39°   Wind: 15mph
Humidity: 93%   Direction: 300°WNW
Pressure: 29.91"   Gusts: 23mph
Location:  35.0418°N, 89.6647°W
Report Text: KOLV 260435Z AUTO 30013G20KT 8SM OVC019 05/04 A2991 RMK A01 P000
Loading
Personal Weather Stations






























Interactive Weather Map New forecast layout! Learn more

10-Day Weather Forecast

Advertisements
Track Severe Weather on mobile